createdAt,value
2019-04-26T04:27:40.160Z,12.00
2019-04-26T04:30:49.439Z,12.00
2019-04-26T04:33:49.647Z,11.90
2019-04-26T04:41:19.547Z,11.90
2019-04-26T04:44:03.389Z,11.80
2019-04-26T04:47:23.746Z,11.80
2019-04-26T04:50:18.955Z,11.60
2019-04-26T04:53:08.619Z,11.60
2019-04-26T04:56:35.474Z,11.50
2019-04-26T04:59:10.541Z,11.50
2019-04-26T05:02:10.467Z,11.50
2019-04-26T05:05:20.235Z,11.50
2019-04-26T05:08:39.463Z,11.50
2019-04-26T05:11:18.469Z,11.50
2019-04-26T05:14:10.011Z,11.50
2019-04-26T05:16:55.381Z,11.40
2019-04-26T05:19:54.784Z,11.60
2019-04-26T05:23:01.153Z,11.50
2019-04-26T05:26:27.910Z,11.30
2019-04-26T05:29:31.050Z,11.30
2019-04-26T05:32:28.690Z,11.30
2019-04-26T05:35:12.225Z,11.30
2019-04-26T05:38:18.412Z,11.40
2019-04-26T05:41:11.179Z,11.20
2019-04-26T05:44:19.479Z,11.20
2019-04-26T05:47:28.736Z,11.10
2019-04-26T05:50:55.831Z,11.00
2019-04-26T05:54:44.709Z,11.10
2019-04-26T05:57:36.623Z,11.00
2019-04-26T06:00:45.775Z,10.90
2019-04-26T06:04:15.757Z,10.80
2019-04-26T06:07:50.905Z,10.70
2019-04-26T06:19:10.674Z,10.60
2019-04-26T06:29:41.493Z,10.50
2019-04-26T06:51:54.365Z,10.90
2019-04-26T06:55:09.496Z,10.90
2019-04-26T06:58:39.981Z,10.90
2019-04-26T07:01:32.679Z,11.00
2019-04-26T07:04:21.634Z,10.90
2019-04-26T07:07:13.452Z,11.00
2019-04-26T07:10:11.047Z,10.90
2019-04-26T07:12:52.774Z,10.90
2019-04-26T07:16:00.315Z,11.00
2019-04-26T07:19:09.568Z,11.00
2019-04-26T07:22:20.376Z,11.00
2019-04-26T07:25:38.190Z,10.90
2019-04-26T07:28:49.604Z,10.90
2019-04-26T07:31:47.283Z,10.90
2019-04-26T07:34:52.510Z,11.00
2019-04-26T07:38:16.494Z,11.00
2019-04-26T07:41:46.958Z,10.90
2019-04-26T07:44:46.207Z,11.00
2019-04-26T07:47:38.951Z,11.00
2019-04-26T07:50:46.279Z,11.10
2019-04-26T07:53:43.423Z,11.10
2019-04-26T07:56:27.038Z,11.10
2019-04-26T07:59:36.698Z,11.10
2019-04-26T08:02:53.594Z,11.20
2019-04-26T08:05:37.388Z,11.20
2019-04-26T08:08:10.940Z,11.00
2019-04-26T08:10:43.619Z,11.10
2019-04-26T08:13:18.054Z,11.10
2019-04-26T08:16:17.947Z,11.20
2019-04-26T08:18:57.008Z,11.10
2019-04-26T08:21:32.997Z,11.00
2019-04-26T08:24:23.143Z,11.10
2019-04-26T08:27:23.716Z,11.00
2019-04-26T08:30:03.454Z,11.20
2019-04-26T08:32:39.519Z,11.00
2019-04-26T08:35:22.758Z,11.20
2019-04-26T08:37:57.554Z,11.10
2019-04-26T08:40:31.232Z,11.20
2019-04-26T08:43:31.913Z,11.10
2019-04-26T08:46:23.722Z,11.10
2019-04-26T08:49:18.207Z,11.00
2019-04-26T08:51:52.156Z,11.00
2019-04-26T08:54:28.636Z,11.20
2019-04-26T08:57:09.623Z,11.10
2019-04-26T08:59:46.744Z,11.20
2019-04-26T09:02:42.954Z,11.20
2019-04-26T09:05:35.857Z,11.10
2019-04-26T09:08:09.593Z,11.10
2019-04-26T09:10:44.244Z,11.10
2019-04-26T09:13:17.887Z,11.10
2019-04-26T09:16:10.970Z,11.10
2019-04-26T09:18:44.109Z,11.20
2019-04-26T09:21:19.315Z,11.20
2019-04-26T09:24:08.915Z,11.20
2019-04-26T09:26:52.147Z,11.20
2019-04-26T09:29:41.587Z,11.40
2019-04-26T09:32:15.237Z,11.40
2019-04-26T09:34:46.036Z,11.40
2019-04-26T09:37:16.751Z,11.60
2019-04-26T09:39:47.382Z,11.70
2019-04-26T09:42:39.389Z,11.70
2019-04-26T09:45:25.573Z,11.70
2019-04-26T09:48:01.549Z,11.90
2019-04-26T09:50:40.006Z,11.90
2019-04-26T09:53:10.604Z,12.00
2019-04-26T09:55:41.130Z,12.10
2019-04-26T09:58:11.720Z,12.10
2019-04-26T10:00:44.176Z,12.10
2019-04-26T10:03:14.749Z,12.10
2019-04-26T10:05:45.267Z,12.10
2019-04-26T10:08:16.903Z,12.20
2019-04-26T10:10:47.676Z,12.30
2019-04-26T10:13:49.322Z,12.10
2019-04-26T10:16:37.764Z,12.10
2019-04-26T10:19:11.192Z,12.20
2019-04-26T10:21:41.857Z,12.20
2019-04-26T10:24:24.817Z,12.10
2019-04-26T10:27:03.293Z,12.00
2019-04-26T10:29:33.693Z,11.90
2019-04-26T10:32:04.218Z,11.80
2019-04-26T10:34:35.027Z,12.00
2019-04-26T10:37:06.334Z,12.00
2019-04-26T10:39:38.026Z,12.10
2019-04-26T10:42:09.564Z,12.10
2019-04-26T10:44:41.153Z,12.10
2019-04-26T10:47:12.006Z,12.10
2019-04-26T10:53:00.306Z,12.10
2019-04-26T10:56:08.607Z,12.10
2019-04-26T10:58:46.860Z,12.20
2019-04-26T11:01:19.052Z,12.30
2019-04-26T11:03:49.682Z,12.50
2019-04-26T11:07:22.451Z,12.70
2019-04-26T11:10:08.318Z,12.70
2019-04-26T11:12:39.714Z,12.70
2019-04-26T11:15:12.611Z,12.80
2019-04-26T11:17:49.974Z,12.60
2019-04-26T11:20:20.934Z,12.50
2019-04-26T11:22:51.701Z,12.40
2019-04-26T11:25:24.653Z,12.40
2019-04-26T11:27:54.898Z,12.50
2019-04-26T11:30:29.282Z,12.60
2019-04-26T11:33:00.188Z,12.40
2019-04-26T11:35:34.836Z,12.60
2019-04-26T11:38:05.935Z,12.90
2019-04-26T11:40:37.575Z,12.90
2019-04-26T11:43:15.774Z,13.00
2019-04-26T11:46:44.684Z,12.70
2019-04-26T11:49:37.321Z,12.70
2019-04-26T12:02:54.308Z,12.70
2019-04-26T12:21:35.821Z,13.10
2019-04-26T12:31:02.605Z,13.90
2019-04-26T12:33:45.177Z,13.70
2019-04-26T12:36:45.614Z,13.40
2019-04-26T12:43:20.111Z,13.10
2019-04-26T12:46:32.665Z,13.10
2019-04-26T12:49:20.173Z,13.20
2019-04-26T12:51:47.143Z,13.00
2019-04-26T12:55:18.441Z,13.10
2019-04-26T13:00:54.091Z,13.10
2019-04-26T13:04:09.741Z,13.00
2019-04-26T13:07:22.663Z,13.00
2019-04-26T13:10:09.705Z,13.10
2019-04-26T13:13:01.259Z,13.20
2019-04-26T13:25:26.425Z,13.30
2019-04-26T13:28:00.467Z,13.30
2019-04-26T13:30:32.951Z,13.40
2019-04-26T13:34:03.050Z,13.60
2019-04-26T13:36:43.878Z,13.60
2019-04-26T13:42:31.636Z,13.90
2019-04-26T13:51:34.693Z,13.70
2019-04-26T13:54:21.077Z,14.00
2019-04-26T13:57:00.355Z,14.40
2019-04-26T13:59:46.535Z,14.60
2019-04-26T14:08:58.301Z,16.70
2019-04-26T14:11:40.416Z,17.80
2019-04-26T14:14:22.569Z,18.20
2019-04-26T14:17:12.018Z,18.00
2019-04-26T14:19:49.486Z,17.60
2019-04-26T14:22:20.540Z,17.00
2019-04-26T14:25:05.264Z,16.40
2019-04-26T14:27:40.158Z,16.40
2019-04-26T14:30:10.993Z,16.10
2019-04-26T14:32:42.716Z,16.00
2019-04-26T14:35:15.800Z,15.70
2019-04-26T14:37:49.952Z,15.20
2019-04-26T14:40:18.661Z,14.70
2019-04-26T14:42:49.232Z,14.80
2019-04-26T14:48:36.186Z,14.90
2019-04-26T14:51:29.555Z,15.10
2019-04-26T14:54:20.286Z,15.20
2019-04-26T14:56:52.060Z,15.20
2019-04-26T14:59:39.433Z,15.20
2019-04-26T15:02:22.654Z,15.20
2019-04-26T15:05:12.250Z,15.20
2019-04-26T15:07:49.421Z,14.90
2019-04-26T15:10:16.619Z,15.30
2019-04-26T15:12:52.680Z,15.60
2019-04-26T15:15:19.653Z,15.50
2019-04-26T15:17:53.657Z,15.30
2019-04-26T15:20:24.531Z,15.30
2019-04-26T15:22:56.449Z,15.30
2019-04-26T15:25:27.232Z,15.50
2019-04-26T15:27:57.859Z,15.40
2019-04-26T15:30:28.491Z,15.70
2019-04-26T15:33:02.282Z,15.70
2019-04-26T15:35:35.622Z,15.90
2019-04-26T15:38:05.299Z,15.80
2019-04-26T15:40:57.475Z,15.80
2019-04-26T15:43:50.225Z,15.50
2019-04-26T15:46:53.763Z,15.50
2019-04-26T15:49:39.539Z,15.40
2019-04-26T15:52:10.257Z,15.30
2019-04-26T15:54:43.967Z,15.30
2019-04-26T15:57:15.574Z,15.60
2019-04-26T15:59:47.204Z,15.50
2019-04-26T16:02:18.298Z,15.70
2019-04-26T16:04:54.498Z,15.80
2019-04-26T16:07:28.892Z,16.00
2019-04-26T16:09:58.631Z,16.00
2019-04-26T16:12:29.457Z,15.80
2019-04-26T16:15:02.294Z,15.70
2019-04-26T16:17:36.097Z,15.80
2019-04-26T16:20:05.590Z,15.80
2019-04-26T16:22:37.461Z,15.70
2019-04-26T16:25:08.471Z,15.40
2019-04-26T16:27:43.460Z,15.40
2019-04-26T16:30:32.978Z,15.20
2019-04-26T16:33:16.009Z,15.30
2019-04-26T16:35:47.184Z,15.30
2019-04-26T16:38:36.906Z,15.60
2019-04-26T16:41:08.191Z,15.70
2019-04-26T16:43:44.695Z,15.90
2019-04-26T16:46:20.059Z,15.90
2019-04-26T16:48:44.618Z,16.00
2019-04-26T16:51:15.669Z,15.70
2019-04-26T16:54:04.708Z,15.70
2019-04-26T16:56:25.844Z,15.50
2019-04-26T16:58:53.595Z,15.30
2019-04-26T17:01:23.910Z,15.40
2019-04-26T17:03:54.385Z,15.50
2019-04-26T17:06:24.892Z,15.30
2019-04-26T17:09:01.095Z,15.20
2019-04-26T17:11:30.170Z,15.40
2019-04-26T17:14:04.348Z,15.50
2019-04-26T17:16:34.713Z,15.30
2019-04-26T17:19:04.194Z,15.20
2019-04-26T17:21:40.654Z,15.20
2019-04-26T17:24:30.183Z,15.20
2019-04-26T17:27:05.452Z,15.20
2019-04-26T17:29:35.747Z,15.30
2019-04-26T17:32:25.130Z,15.20
2019-04-26T17:35:11.354Z,15.20
2019-04-26T17:38:39.222Z,15.30
2019-04-26T17:41:13.648Z,15.40
2019-04-26T17:44:13.317Z,15.30
2019-04-26T17:46:48.863Z,15.20
2019-04-26T17:49:22.645Z,15.20
2019-04-26T17:51:57.989Z,15.00
2019-04-26T17:54:41.671Z,15.20
2019-04-26T17:56:56.917Z,15.30
2019-04-26T17:59:33.354Z,15.50
2019-04-26T18:02:01.373Z,15.50
2019-04-26T18:04:36.866Z,15.60
2019-04-26T18:07:33.874Z,15.60
2019-04-26T18:09:44.698Z,15.50
2019-04-26T18:12:12.210Z,15.50
2019-04-26T18:14:42.708Z,15.50
2019-04-26T18:17:25.166Z,15.40
2019-04-26T18:20:16.655Z,15.40
2019-04-26T18:23:03.473Z,15.30
2019-04-26T18:25:35.694Z,15.30
2019-04-26T18:28:14.668Z,15.20
2019-04-26T18:30:44.876Z,15.20
2019-04-26T18:33:17.608Z,15.20
2019-04-26T18:35:49.270Z,15.20
2019-04-26T18:38:25.809Z,15.10
2019-04-26T18:41:00.872Z,15.10
2019-04-26T18:43:30.578Z,15.20
2019-04-26T18:46:06.608Z,15.10
2019-04-26T18:48:55.404Z,15.00
2019-04-26T18:51:27.382Z,15.00
2019-04-26T18:54:30.944Z,15.00
2019-04-26T18:57:03.292Z,15.00
2019-04-26T18:59:34.316Z,15.00
2019-04-26T19:02:05.355Z,15.10
2019-04-26T19:04:36.130Z,15.10
2019-04-26T19:07:06.801Z,15.00
2019-04-26T19:10:05.452Z,15.10
2019-04-26T19:12:45.078Z,14.80
2019-04-26T19:15:40.377Z,14.80
2019-04-26T19:18:17.644Z,14.80
2019-04-26T19:21:07.553Z,14.90
2019-04-26T19:23:38.442Z,14.90
2019-04-26T19:26:13.655Z,14.80
2019-04-26T19:28:44.521Z,14.70
2019-04-26T19:31:23.831Z,14.80
2019-04-26T19:33:56.138Z,14.70
2019-04-26T19:36:29.366Z,14.60
2019-04-26T19:39:01.093Z,14.70
2019-04-26T19:41:34.630Z,14.70
2019-04-26T19:44:06.828Z,14.70
2019-04-26T19:47:29.299Z,14.70
2019-04-26T20:02:01.679Z,14.60
2019-04-26T20:04:48.361Z,14.50
2019-04-26T20:07:33.393Z,14.30
2019-04-26T20:10:08.691Z,14.20
2019-04-26T20:13:16.720Z,14.00
2019-04-26T20:16:02.599Z,14.00
2019-04-26T20:18:38.780Z,13.70
2019-04-26T20:21:49.801Z,13.20
2019-04-26T20:24:22.378Z,13.30
2019-04-26T20:34:22.495Z,13.20
2019-04-26T20:37:26.205Z,13.30
2019-04-26T20:40:17.683Z,13.20
2019-04-26T20:42:46.025Z,13.30
2019-04-26T20:46:12.366Z,13.30
2019-04-26T20:49:12.749Z,13.30
2019-04-26T20:53:02.522Z,13.40
2019-04-26T20:55:38.453Z,13.30
2019-04-26T20:58:14.559Z,13.20
2019-04-26T21:00:54.181Z,13.30
2019-04-26T21:06:37.386Z,13.00
2019-04-26T21:09:19.468Z,13.10
2019-04-26T21:18:52.011Z,12.40
2019-04-26T21:21:22.551Z,12.10
2019-04-26T21:23:54.414Z,12.20
2019-04-26T21:26:51.352Z,12.30
2019-04-26T21:29:41.666Z,12.40
2019-04-26T21:32:40.684Z,12.60
2019-04-26T21:35:15.016Z,12.60
2019-04-26T21:38:10.472Z,12.60
2019-04-26T21:40:55.329Z,12.50
2019-04-26T21:43:34.712Z,12.50
2019-04-26T21:46:14.529Z,12.70
2019-04-26T21:48:44.713Z,12.70
2019-04-26T21:51:17.702Z,12.90
2019-04-26T21:53:48.052Z,12.90
2019-04-26T21:56:18.675Z,12.80
2019-04-26T21:58:49.251Z,12.90
2019-04-26T22:01:24.873Z,12.90
2019-04-26T22:03:58.304Z,12.80
2019-04-26T22:06:28.855Z,12.90
2019-04-26T22:09:09.381Z,12.90
2019-04-26T22:11:49.421Z,12.90
2019-04-26T22:14:25.603Z,12.80
2019-04-26T22:17:02.015Z,12.80
2019-04-26T22:19:50.376Z,12.60
2019-04-26T22:22:41.532Z,12.60
2019-04-26T22:25:10.897Z,12.60
2019-04-26T22:27:41.375Z,12.50
2019-04-26T22:30:16.998Z,12.30
2019-04-26T22:32:48.473Z,11.90
2019-04-26T22:35:21.435Z,11.90
2019-04-26T22:37:51.399Z,12.00
2019-04-26T22:40:23.360Z,12.20
2019-04-26T22:43:00.363Z,12.30
2019-04-26T22:45:49.804Z,12.20
2019-04-26T22:48:39.211Z,12.20
2019-04-26T22:51:09.832Z,12.10
2019-04-26T22:53:40.423Z,12.00
2019-04-26T22:56:10.882Z,11.90
2019-04-26T22:58:41.485Z,11.80
2019-04-26T23:01:12.136Z,12.00
2019-04-26T23:03:46.294Z,12.10
2019-04-26T23:06:15.849Z,12.30
2019-04-26T23:08:46.369Z,12.20
2019-04-26T23:11:17.281Z,12.00
2019-04-26T23:14:06.729Z,12.10
2019-04-26T23:17:06.423Z,12.10
2019-04-26T23:19:45.007Z,12.10
2019-04-26T23:22:15.613Z,12.10
2019-04-26T23:24:49.224Z,12.30
2019-04-26T23:27:20.447Z,12.20
2019-04-26T23:29:56.317Z,12.20
2019-04-26T23:32:24.740Z,12.30
2019-04-26T23:34:58.149Z,12.30
2019-04-26T23:37:27.768Z,12.40
2019-04-26T23:39:58.668Z,12.40
2019-04-26T23:42:29.324Z,12.50
2019-04-26T23:44:59.920Z,12.40
2019-04-26T23:47:31.982Z,12.40
2019-04-26T23:50:03.656Z,12.40
2019-04-26T23:52:34.280Z,12.50
2019-04-26T23:55:08.745Z,12.50
2019-04-26T23:57:43.470Z,12.40
